sensor_id;sensor_type;location;lat;lon;timestamp;P1;durP1;ratioP1;P2;durP2;ratioP2
13685;SDS011;6915;48.296;8.874;2023-04-03T00:00:55;8.37;;;7.57;;
13685;SDS011;6915;48.296;8.874;2023-04-03T00:03:25;8.37;;;7.30;;
13685;SDS011;6915;48.296;8.874;2023-04-03T00:05:54;9.63;;;7.80;;
13685;SDS011;6915;48.296;8.874;2023-04-03T00:08:23;8.80;;;7.90;;
13685;SDS011;6915;48.296;8.874;2023-04-03T00:10:51;8.33;;;7.40;;
13685;SDS011;6915;48.296;8.874;2023-04-03T00:13:20;12.47;;;7.90;;
13685;SDS011;6915;48.296;8.874;2023-04-03T00:15:48;10.17;;;8.20;;
13685;SDS011;6915;48.296;8.874;2023-04-03T00:18:17;9.93;;;7.60;;
13685;SDS011;6915;48.296;8.874;2023-04-03T00:20:48;8.23;;;7.33;;
13685;SDS011;6915;48.296;8.874;2023-04-03T00:23:17;11.07;;;7.83;;
13685;SDS011;6915;48.296;8.874;2023-04-03T00:25:46;9.40;;;7.67;;
13685;SDS011;6915;48.296;8.874;2023-04-03T00:28:14;11.27;;;7.67;;
13685;SDS011;6915;48.296;8.874;2023-04-03T00:30:43;8.13;;;7.33;;
13685;SDS011;6915;48.296;8.874;2023-04-03T00:33:12;10.03;;;7.63;;
13685;SDS011;6915;48.296;8.874;2023-04-03T00:35:41;10.00;;;7.77;;
13685;SDS011;6915;48.296;8.874;2023-04-03T00:38:11;10.93;;;7.70;;
13685;SDS011;6915;48.296;8.874;2023-04-03T00:40:41;10.87;;;7.80;;
13685;SDS011;6915;48.296;8.874;2023-04-03T00:43:12;8.57;;;7.30;;
13685;SDS011;6915;48.296;8.874;2023-04-03T00:45:43;9.20;;;7.17;;
13685;SDS011;6915;48.296;8.874;2023-04-03T00:48:14;8.40;;;7.60;;
13685;SDS011;6915;48.296;8.874;2023-04-03T00:50:46;7.97;;;7.10;;
13685;SDS011;6915;48.296;8.874;2023-04-03T00:53:19;9.67;;;7.90;;
13685;SDS011;6915;48.296;8.874;2023-04-03T00:55:52;7.80;;;6.93;;
13685;SDS011;6915;48.296;8.874;2023-04-03T00:58:25;9.60;;;6.90;;
13685;SDS011;6915;48.296;8.874;2023-04-03T01:00:59;8.53;;;6.60;;
13685;SDS011;6915;48.296;8.874;2023-04-03T01:03:33;7.17;;;6.47;;
13685;SDS011;6915;48.296;8.874;2023-04-03T01:06:01;8.10;;;6.40;;
13685;SDS011;6915;48.296;8.874;2023-04-03T01:08:32;7.27;;;6.57;;
13685;SDS011;6915;48.296;8.874;2023-04-03T01:11:01;7.57;;;6.13;;
13685;SDS011;6915;48.296;8.874;2023-04-03T01:13:31;7.07;;;6.30;;
13685;SDS011;6915;48.296;8.874;2023-04-03T01:16:00;6.27;;;5.70;;
13685;SDS011;6915;48.296;8.874;2023-04-03T01:18:31;7.40;;;6.33;;
13685;SDS011;6915;48.296;8.874;2023-04-03T01:24:04;6.63;;;5.93;;
13685;SDS011;6915;48.296;8.874;2023-04-03T01:26:41;6.73;;;6.03;;
13685;SDS011;6915;48.296;8.874;2023-04-03T01:29:10;8.53;;;6.33;;
13685;SDS011;6915;48.296;8.874;2023-04-03T01:31:48;9.40;;;6.13;;
13685;SDS011;6915;48.296;8.874;2023-04-03T01:34:16;8.33;;;6.30;;
13685;SDS011;6915;48.296;8.874;2023-04-03T01:36:45;6.50;;;5.90;;
13685;SDS011;6915;48.296;8.874;2023-04-03T01:39:15;7.53;;;6.03;;
13685;SDS011;6915;48.296;8.874;2023-04-03T01:41:44;6.33;;;5.73;;
13685;SDS011;6915;48.296;8.874;2023-04-03T01:44:14;6.53;;;5.67;;
13685;SDS011;6915;48.296;8.874;2023-04-03T01:46:42;8.37;;;5.63;;
13685;SDS011;6915;48.296;8.874;2023-04-03T01:49:12;6.40;;;5.80;;
13685;SDS011;6915;48.296;8.874;2023-04-03T01:51:41;6.83;;;6.03;;
13685;SDS011;6915;48.296;8.874;2023-04-03T01:54:10;7.00;;;5.73;;
13685;SDS011;6915;48.296;8.874;2023-04-03T01:56:39;6.37;;;5.40;;
13685;SDS011;6915;48.296;8.874;2023-04-03T01:59:08;7.20;;;5.77;;
13685;SDS011;6915;48.296;8.874;2023-04-03T02:01:37;7.93;;;6.23;;
13685;SDS011;6915;48.296;8.874;2023-04-03T02:04:06;9.47;;;7.30;;
13685;SDS011;6915;48.296;8.874;2023-04-03T02:06:37;9.27;;;6.93;;
13685;SDS011;6915;48.296;8.874;2023-04-03T02:09:06;9.30;;;7.13;;
13685;SDS011;6915;48.296;8.874;2023-04-03T02:11:34;8.23;;;6.30;;
13685;SDS011;6915;48.296;8.874;2023-04-03T02:14:03;6.73;;;6.00;;
13685;SDS011;6915;48.296;8.874;2023-04-03T02:16:32;6.77;;;6.07;;
13685;SDS011;6915;48.296;8.874;2023-04-03T02:19:01;8.73;;;6.20;;
13685;SDS011;6915;48.296;8.874;2023-04-03T02:21:30;7.97;;;6.57;;
13685;SDS011;6915;48.296;8.874;2023-04-03T02:24:00;8.23;;;5.93;;
13685;SDS011;6915;48.296;8.874;2023-04-03T02:26:28;7.73;;;6.20;;
13685;SDS011;6915;48.296;8.874;2023-04-03T02:28:57;7.13;;;6.00;;
13685;SDS011;6915;48.296;8.874;2023-04-03T02:31:26;7.43;;;6.13;;
13685;SDS011;6915;48.296;8.874;2023-04-03T02:33:54;7.20;;;5.80;;
13685;SDS011;6915;48.296;8.874;2023-04-03T02:36:23;7.03;;;5.73;;
13685;SDS011;6915;48.296;8.874;2023-04-03T02:38:51;6.97;;;5.50;;
13685;SDS011;6915;48.296;8.874;2023-04-03T02:41:21;7.23;;;6.00;;
13685;SDS011;6915;48.296;8.874;2023-04-03T02:43:57;6.13;;;5.50;;
13685;SDS011;6915;48.296;8.874;2023-04-03T02:46:25;7.23;;;5.77;;
13685;SDS011;6915;48.296;8.874;2023-04-03T02:48:54;6.53;;;5.70;;
13685;SDS011;6915;48.296;8.874;2023-04-03T02:51:23;6.83;;;5.90;;
13685;SDS011;6915;48.296;8.874;2023-04-03T02:53:51;7.07;;;5.97;;
13685;SDS011;6915;48.296;8.874;2023-04-03T02:56:21;6.20;;;5.60;;
13685;SDS011;6915;48.296;8.874;2023-04-03T02:58:51;6.60;;;6.00;;
13685;SDS011;6915;48.296;8.874;2023-04-03T03:01:20;6.23;;;5.63;;
13685;SDS011;6915;48.296;8.874;2023-04-03T03:03:49;6.27;;;5.67;;
13685;SDS011;6915;48.296;8.874;2023-04-03T03:06:17;6.83;;;6.13;;
13685;SDS011;6915;48.296;8.874;2023-04-03T03:08:46;7.23;;;6.07;;
13685;SDS011;6915;48.296;8.874;2023-04-03T03:11:15;8.40;;;5.47;;
13685;SDS011;6915;48.296;8.874;2023-04-03T03:13:46;8.93;;;6.00;;
13685;SDS011;6915;48.296;8.874;2023-04-03T03:16:15;6.60;;;5.97;;
13685;SDS011;6915;48.296;8.874;2023-04-03T03:18:43;5.90;;;5.30;;
13685;SDS011;6915;48.296;8.874;2023-04-03T03:21:12;7.10;;;5.77;;
13685;SDS011;6915;48.296;8.874;2023-04-03T03:23:41;5.43;;;4.93;;
13685;SDS011;6915;48.296;8.874;2023-04-03T03:26:10;6.10;;;5.50;;
13685;SDS011;6915;48.296;8.874;2023-04-03T03:28:39;6.27;;;5.47;;
13685;SDS011;6915;48.296;8.874;2023-04-03T03:31:10;5.97;;;5.37;;
13685;SDS011;6915;48.296;8.874;2023-04-03T03:33:40;6.73;;;6.03;;
13685;SDS011;6915;48.296;8.874;2023-04-03T03:36:09;9.47;;;6.90;;
13685;SDS011;6915;48.296;8.874;2023-04-03T03:38:38;8.77;;;7.10;;
13685;SDS011;6915;48.296;8.874;2023-04-03T03:41:06;9.80;;;6.83;;
13685;SDS011;6915;48.296;8.874;2023-04-03T03:43:35;8.17;;;7.30;;
13685;SDS011;6915;48.296;8.874;2023-04-03T03:46:03;7.83;;;7.03;;
13685;SDS011;6915;48.296;8.874;2023-04-03T03:48:34;8.07;;;6.67;;
13685;SDS011;6915;48.296;8.874;2023-04-03T03:51:03;7.27;;;6.10;;
13685;SDS011;6915;48.296;8.874;2023-04-03T03:53:32;8.20;;;7.20;;
13685;SDS011;6915;48.296;8.874;2023-04-03T03:56:00;10.17;;;7.97;;
13685;SDS011;6915;48.296;8.874;2023-04-03T03:58:29;8.47;;;7.27;;
13685;SDS011;6915;48.296;8.874;2023-04-03T04:01:01;7.87;;;6.50;;
13685;SDS011;6915;48.296;8.874;2023-04-03T04:03:31;6.70;;;6.03;;
13685;SDS011;6915;48.296;8.874;2023-04-03T04:05:59;8.47;;;5.53;;
13685;SDS011;6915;48.296;8.874;2023-04-03T04:08:28;7.13;;;6.43;;
13685;SDS011;6915;48.296;8.874;2023-04-03T04:10:57;8.17;;;6.03;;
13685;SDS011;6915;48.296;8.874;2023-04-03T04:13:25;6.30;;;5.70;;
13685;SDS011;6915;48.296;8.874;2023-04-03T04:15:54;6.63;;;5.50;;
13685;SDS011;6915;48.296;8.874;2023-04-03T04:18:22;8.47;;;5.80;;
13685;SDS011;6915;48.296;8.874;2023-04-03T04:20:52;8.37;;;5.70;;
13685;SDS011;6915;48.296;8.874;2023-04-03T04:28:26;6.63;;;5.90;;
13685;SDS011;6915;48.296;8.874;2023-04-03T04:30:56;5.80;;;5.30;;
13685;SDS011;6915;48.296;8.874;2023-04-03T04:33:25;7.90;;;5.60;;
13685;SDS011;6915;48.296;8.874;2023-04-03T04:35:55;7.27;;;6.43;;
13685;SDS011;6915;48.296;8.874;2023-04-03T04:38:24;7.17;;;6.30;;
13685;SDS011;6915;48.296;8.874;2023-04-03T04:40:53;8.33;;;6.13;;
13685;SDS011;6915;48.296;8.874;2023-04-03T04:43:21;7.40;;;6.33;;
13685;SDS011;6915;48.296;8.874;2023-04-03T04:45:59;6.87;;;6.10;;
13685;SDS011;6915;48.296;8.874;2023-04-03T04:48:27;7.47;;;6.40;;
13685;SDS011;6915;48.296;8.874;2023-04-03T04:50:56;7.27;;;6.20;;
13685;SDS011;6915;48.296;8.874;2023-04-03T04:53:25;7.03;;;6.37;;
13685;SDS011;6915;48.296;8.874;2023-04-03T04:55:54;6.37;;;5.77;;
13685;SDS011;6915;48.296;8.874;2023-04-03T04:58:22;6.33;;;5.53;;
13685;SDS011;6915;48.296;8.874;2023-04-03T05:00:57;7.07;;;5.50;;
13685;SDS011;6915;48.296;8.874;2023-04-03T05:03:25;7.23;;;5.80;;
13685;SDS011;6915;48.296;8.874;2023-04-03T05:05:53;6.93;;;5.90;;
13685;SDS011;6915;48.296;8.874;2023-04-03T05:08:24;7.40;;;5.90;;
13685;SDS011;6915;48.296;8.874;2023-04-03T05:10:53;6.70;;;5.73;;
13685;SDS011;6915;48.296;8.874;2023-04-03T05:13:21;6.53;;;5.67;;
13685;SDS011;6915;48.296;8.874;2023-04-03T05:15:50;5.97;;;5.33;;
13685;SDS011;6915;48.296;8.874;2023-04-03T05:18:19;8.87;;;7.67;;
13685;SDS011;6915;48.296;8.874;2023-04-03T05:20:48;8.07;;;6.50;;
13685;SDS011;6915;48.296;8.874;2023-04-03T05:23:16;7.50;;;5.87;;
13685;SDS011;6915;48.296;8.874;2023-04-03T05:28:18;7.80;;;5.50;;
13685;SDS011;6915;48.296;8.874;2023-04-03T05:30:52;5.40;;;4.90;;
13685;SDS011;6915;48.296;8.874;2023-04-03T05:33:20;5.73;;;4.83;;
13685;SDS011;6915;48.296;8.874;2023-04-03T05:35:49;4.43;;;4.03;;
13685;SDS011;6915;48.296;8.874;2023-04-03T05:38:18;4.33;;;3.93;;
13685;SDS011;6915;48.296;8.874;2023-04-03T05:40:47;6.30;;;4.53;;
13685;SDS011;6915;48.296;8.874;2023-04-03T05:43:15;3.63;;;3.13;;
13685;SDS011;6915;48.296;8.874;2023-04-03T05:45:44;3.70;;;3.40;;
13685;SDS011;6915;48.296;8.874;2023-04-03T05:48:13;5.30;;;3.80;;
13685;SDS011;6915;48.296;8.874;2023-04-03T05:50:42;4.60;;;4.20;;
13685;SDS011;6915;48.296;8.874;2023-04-03T05:53:12;4.50;;;4.10;;
13685;SDS011;6915;48.296;8.874;2023-04-03T05:55:47;4.80;;;4.30;;
13685;SDS011;6915;48.296;8.874;2023-04-03T05:58:16;5.00;;;3.97;;
13685;SDS011;6915;48.296;8.874;2023-04-03T06:00:44;4.60;;;4.03;;
13685;SDS011;6915;48.296;8.874;2023-04-03T06:03:13;3.50;;;3.20;;
13685;SDS011;6915;48.296;8.874;2023-04-03T06:05:42;3.23;;;2.90;;
13685;SDS011;6915;48.296;8.874;2023-04-03T06:08:12;4.27;;;2.90;;
13685;SDS011;6915;48.296;8.874;2023-04-03T06:10:40;2.87;;;2.67;;
13685;SDS011;6915;48.296;8.874;2023-04-03T06:13:09;4.27;;;2.97;;
13685;SDS011;6915;48.296;8.874;2023-04-03T06:15:40;3.47;;;2.80;;
13685;SDS011;6915;48.296;8.874;2023-04-03T06:18:09;3.27;;;2.97;;
13685;SDS011;6915;48.296;8.874;2023-04-03T06:20:39;3.50;;;3.20;;
13685;SDS011;6915;48.296;8.874;2023-04-03T06:23:08;3.27;;;2.80;;
13685;SDS011;6915;48.296;8.874;2023-04-03T06:25:37;2.93;;;2.73;;
13685;SDS011;6915;48.296;8.874;2023-04-03T06:28:07;3.33;;;3.03;;
13685;SDS011;6915;48.296;8.874;2023-04-03T06:30:36;3.40;;;2.53;;
13685;SDS011;6915;48.296;8.874;2023-04-03T06:33:06;2.40;;;2.20;;
13685;SDS011;6915;48.296;8.874;2023-04-03T06:35:35;4.13;;;2.10;;
13685;SDS011;6915;48.296;8.874;2023-04-03T06:38:04;3.10;;;2.20;;
13685;SDS011;6915;48.296;8.874;2023-04-03T06:40:34;2.40;;;2.20;;
13685;SDS011;6915;48.296;8.874;2023-04-03T06:43:03;2.17;;;2.07;;
13685;SDS011;6915;48.296;8.874;2023-04-03T06:45:32;1.67;;;1.50;;
13685;SDS011;6915;48.296;8.874;2023-04-03T06:48:01;2.93;;;1.80;;
13685;SDS011;6915;48.296;8.874;2023-04-03T06:50:31;2.10;;;1.90;;
13685;SDS011;6915;48.296;8.874;2023-04-03T06:53:00;2.53;;;2.33;;
13685;SDS011;6915;48.296;8.874;2023-04-03T06:55:29;2.30;;;2.10;;
13685;SDS011;6915;48.296;8.874;2023-04-03T06:57:58;3.30;;;1.70;;
13685;SDS011;6915;48.296;8.874;2023-04-03T07:00:28;2.27;;;2.07;;
13685;SDS011;6915;48.296;8.874;2023-04-03T07:02:57;1.80;;;1.70;;
13685;SDS011;6915;48.296;8.874;2023-04-03T07:05:26;2.03;;;1.83;;
13685;SDS011;6915;48.296;8.874;2023-04-03T07:07:56;2.27;;;1.80;;
13685;SDS011;6915;48.296;8.874;2023-04-03T07:10:25;2.23;;;1.53;;
13685;SDS011;6915;48.296;8.874;2023-04-03T07:12:53;2.30;;;2.10;;
13685;SDS011;6915;48.296;8.874;2023-04-03T07:15:22;3.33;;;1.80;;
13685;SDS011;6915;48.296;8.874;2023-04-03T07:17:51;2.20;;;1.70;;
13685;SDS011;6915;48.296;8.874;2023-04-03T07:20:22;2.60;;;2.00;;
13685;SDS011;6915;48.296;8.874;2023-04-03T07:22:51;1.83;;;1.70;;
13685;SDS011;6915;48.296;8.874;2023-04-03T07:25:21;1.93;;;1.77;;
13685;SDS011;6915;48.296;8.874;2023-04-03T07:27:50;1.93;;;1.70;;
13685;SDS011;6915;48.296;8.874;2023-04-03T07:35:25;2.67;;;1.70;;
13685;SDS011;6915;48.296;8.874;2023-04-03T07:37:53;3.20;;;1.87;;
13685;SDS011;6915;48.296;8.874;2023-04-03T07:40:24;2.47;;;2.17;;
13685;SDS011;6915;48.296;8.874;2023-04-03T07:42:53;1.50;;;1.40;;
13685;SDS011;6915;48.296;8.874;2023-04-03T07:45:22;2.27;;;1.70;;
13685;SDS011;6915;48.296;8.874;2023-04-03T07:47:51;1.80;;;1.70;;
13685;SDS011;6915;48.296;8.874;2023-04-03T07:50:20;1.87;;;1.73;;
13685;SDS011;6915;48.296;8.874;2023-04-03T07:52:49;1.67;;;1.57;;
13685;SDS011;6915;48.296;8.874;2023-04-03T07:55:19;2.37;;;1.90;;
13685;SDS011;6915;48.296;8.874;2023-04-03T07:57:49;2.73;;;2.53;;
13685;SDS011;6915;48.296;8.874;2023-04-03T08:00:18;3.63;;;2.67;;
13685;SDS011;6915;48.296;8.874;2023-04-03T08:02:47;4.07;;;2.67;;
13685;SDS011;6915;48.296;8.874;2023-04-03T08:05:16;3.60;;;3.13;;
13685;SDS011;6915;48.296;8.874;2023-04-03T08:07:47;3.80;;;3.07;;
13685;SDS011;6915;48.296;8.874;2023-04-03T08:10:16;2.97;;;2.53;;
13685;SDS011;6915;48.296;8.874;2023-04-03T08:12:45;3.87;;;2.70;;
13685;SDS011;6915;48.296;8.874;2023-04-03T08:15:16;3.50;;;2.50;;
13685;SDS011;6915;48.296;8.874;2023-04-03T08:17:47;3.50;;;2.63;;
13685;SDS011;6915;48.296;8.874;2023-04-03T08:20:17;3.43;;;2.60;;
13685;SDS011;6915;48.296;8.874;2023-04-03T08:22:49;2.70;;;2.50;;
13685;SDS011;6915;48.296;8.874;2023-04-03T08:25:17;3.47;;;3.17;;
13685;SDS011;6915;48.296;8.874;2023-04-03T08:27:47;3.40;;;3.10;;
13685;SDS011;6915;48.296;8.874;2023-04-03T08:30:17;2.70;;;2.50;;
13685;SDS011;6915;48.296;8.874;2023-04-03T08:32:45;2.70;;;2.50;;
13685;SDS011;6915;48.296;8.874;2023-04-03T08:35:14;3.83;;;2.60;;
13685;SDS011;6915;48.296;8.874;2023-04-03T08:37:46;4.00;;;2.40;;
13685;SDS011;6915;48.296;8.874;2023-04-03T08:40:16;2.57;;;2.37;;
13685;SDS011;6915;48.296;8.874;2023-04-03T08:42:47;2.57;;;2.30;;
13685;SDS011;6915;48.296;8.874;2023-04-03T08:45:22;2.37;;;2.17;;
13685;SDS011;6915;48.296;8.874;2023-04-03T08:48:00;5.30;;;2.40;;
13685;SDS011;6915;48.296;8.874;2023-04-03T08:50:35;3.17;;;2.40;;
13685;SDS011;6915;48.296;8.874;2023-04-03T08:53:06;2.50;;;2.30;;
13685;SDS011;6915;48.296;8.874;2023-04-03T08:55:42;3.40;;;2.73;;
13685;SDS011;6915;48.296;8.874;2023-04-03T08:58:12;2.47;;;2.27;;
13685;SDS011;6915;48.296;8.874;2023-04-03T09:00:47;2.97;;;2.70;;
13685;SDS011;6915;48.296;8.874;2023-04-03T09:03:21;3.40;;;2.57;;
13685;SDS011;6915;48.296;8.874;2023-04-03T09:05:52;2.93;;;2.57;;
13685;SDS011;6915;48.296;8.874;2023-04-03T09:08:24;2.70;;;2.50;;
13685;SDS011;6915;48.296;8.874;2023-04-03T09:11:03;4.17;;;2.73;;
13685;SDS011;6915;48.296;8.874;2023-04-03T09:13:44;2.90;;;2.67;;
13685;SDS011;6915;48.296;8.874;2023-04-03T09:16:25;2.60;;;2.40;;
13685;SDS011;6915;48.296;8.874;2023-04-03T09:19:03;3.30;;;3.00;;
13685;SDS011;6915;48.296;8.874;2023-04-03T09:21:42;3.30;;;2.50;;
13685;SDS011;6915;48.296;8.874;2023-04-03T09:24:11;2.70;;;2.50;;
13685;SDS011;6915;48.296;8.874;2023-04-03T09:26:43;3.13;;;2.80;;
13685;SDS011;6915;48.296;8.874;2023-04-03T09:29:17;2.97;;;2.77;;
13685;SDS011;6915;48.296;8.874;2023-04-03T09:31:50;3.63;;;2.90;;
13685;SDS011;6915;48.296;8.874;2023-04-03T09:34:24;3.30;;;3.00;;
13685;SDS011;6915;48.296;8.874;2023-04-03T09:44:37;3.33;;;2.60;;
13685;SDS011;6915;48.296;8.874;2023-04-03T09:47:18;3.93;;;2.67;;
13685;SDS011;6915;48.296;8.874;2023-04-03T09:49:51;3.10;;;2.70;;
13685;SDS011;6915;48.296;8.874;2023-04-03T09:52:44;2.77;;;2.57;;
13685;SDS011;6915;48.296;8.874;2023-04-03T09:55:17;2.73;;;2.53;;
13685;SDS011;6915;48.296;8.874;2023-04-03T09:57:52;2.93;;;2.60;;
13685;SDS011;6915;48.296;8.874;2023-04-03T10:00:23;3.10;;;2.70;;
13685;SDS011;6915;48.296;8.874;2023-04-03T10:06:23;3.43;;;2.40;;
13685;SDS011;6915;48.296;8.874;2023-04-03T10:08:58;4.53;;;2.70;;
13685;SDS011;6915;48.296;8.874;2023-04-03T10:14:55;2.80;;;2.60;;
13685;SDS011;6915;48.296;8.874;2023-04-03T10:17:32;3.10;;;2.80;;
13685;SDS011;6915;48.296;8.874;2023-04-03T10:20:18;3.17;;;2.70;;
13685;SDS011;6915;48.296;8.874;2023-04-03T10:22:59;3.17;;;2.93;;
13685;SDS011;6915;48.296;8.874;2023-04-03T10:25:35;2.83;;;2.47;;
13685;SDS011;6915;48.296;8.874;2023-04-03T10:28:12;2.53;;;2.33;;
13685;SDS011;6915;48.296;8.874;2023-04-03T10:30:52;3.20;;;2.40;;
13685;SDS011;6915;48.296;8.874;2023-04-03T10:33:37;3.20;;;2.90;;
13685;SDS011;6915;48.296;8.874;2023-04-03T10:36:17;3.10;;;2.80;;
13685;SDS011;6915;48.296;8.874;2023-04-03T10:38:55;3.47;;;2.43;;
13685;SDS011;6915;48.296;8.874;2023-04-03T10:41:30;2.40;;;2.20;;
13685;SDS011;6915;48.296;8.874;2023-04-03T10:44:08;3.93;;;2.53;;
13685;SDS011;6915;48.296;8.874;2023-04-03T10:46:49;3.30;;;2.40;;
13685;SDS011;6915;48.296;8.874;2023-04-03T10:49:28;4.77;;;2.57;;
13685;SDS011;6915;48.296;8.874;2023-04-03T10:52:06;3.03;;;2.43;;
13685;SDS011;6915;48.296;8.874;2023-04-03T10:54:43;3.73;;;2.90;;
13685;SDS011;6915;48.296;8.874;2023-04-03T10:57:21;3.00;;;2.37;;
13685;SDS011;6915;48.296;8.874;2023-04-03T10:59:53;3.70;;;2.70;;
13685;SDS011;6915;48.296;8.874;2023-04-03T11:02:28;3.73;;;2.83;;
13685;SDS011;6915;48.296;8.874;2023-04-03T11:05:02;4.33;;;2.43;;
13685;SDS011;6915;48.296;8.874;2023-04-03T11:07:38;3.53;;;2.53;;
13685;SDS011;6915;48.296;8.874;2023-04-03T11:10:12;2.73;;;2.53;;
13685;SDS011;6915;48.296;8.874;2023-04-03T11:12:49;2.90;;;2.60;;
13685;SDS011;6915;48.296;8.874;2023-04-03T11:15:23;3.80;;;2.80;;
13685;SDS011;6915;48.296;8.874;2023-04-03T11:18:00;3.13;;;2.47;;
13685;SDS011;6915;48.296;8.874;2023-04-03T11:20:36;2.93;;;2.50;;
13685;SDS011;6915;48.296;8.874;2023-04-03T11:23:11;3.07;;;2.77;;
13685;SDS011;6915;48.296;8.874;2023-04-03T11:25:46;2.90;;;2.70;;
13685;SDS011;6915;48.296;8.874;2023-04-03T11:28:19;3.27;;;2.60;;
13685;SDS011;6915;48.296;8.874;2023-04-03T11:30:49;3.50;;;2.87;;
13685;SDS011;6915;48.296;8.874;2023-04-03T11:33:31;3.57;;;2.97;;
13685;SDS011;6915;48.296;8.874;2023-04-03T11:36:08;3.60;;;2.70;;
13685;SDS011;6915;48.296;8.874;2023-04-03T11:38:46;4.77;;;3.03;;
13685;SDS011;6915;48.296;8.874;2023-04-03T11:41:23;3.80;;;2.87;;
13685;SDS011;6915;48.296;8.874;2023-04-03T11:43:55;3.80;;;2.83;;
13685;SDS011;6915;48.296;8.874;2023-04-03T11:58:22;3.03;;;2.70;;
13685;SDS011;6915;48.296;8.874;2023-04-03T12:00:53;3.73;;;2.80;;
13685;SDS011;6915;48.296;8.874;2023-04-03T12:12:42;2.87;;;2.60;;
13685;SDS011;6915;48.296;8.874;2023-04-03T12:21:23;2.50;;;2.30;;
13685;SDS011;6915;48.296;8.874;2023-04-03T12:24:28;2.90;;;2.70;;
13685;SDS011;6915;48.296;8.874;2023-04-03T12:27:02;3.07;;;2.53;;
13685;SDS011;6915;48.296;8.874;2023-04-03T12:29:38;3.67;;;2.73;;
13685;SDS011;6915;48.296;8.874;2023-04-03T12:32:15;3.07;;;2.40;;
13685;SDS011;6915;48.296;8.874;2023-04-03T12:34:54;3.03;;;2.63;;
13685;SDS011;6915;48.296;8.874;2023-04-03T12:37:38;5.13;;;3.80;;
13685;SDS011;6915;48.296;8.874;2023-04-03T12:40:20;2.93;;;2.57;;
13685;SDS011;6915;48.296;8.874;2023-04-03T12:45:58;2.73;;;2.50;;
13685;SDS011;6915;48.296;8.874;2023-04-03T12:48:38;5.63;;;2.67;;
13685;SDS011;6915;48.296;8.874;2023-04-03T12:51:13;3.57;;;2.30;;
13685;SDS011;6915;48.296;8.874;2023-04-03T12:53:44;4.30;;;2.30;;
13685;SDS011;6915;48.296;8.874;2023-04-03T12:56:21;4.00;;;2.50;;
13685;SDS011;6915;48.296;8.874;2023-04-03T12:58:53;2.97;;;2.20;;
13685;SDS011;6915;48.296;8.874;2023-04-03T13:01:38;3.70;;;2.50;;
13685;SDS011;6915;48.296;8.874;2023-04-03T13:04:09;5.77;;;2.63;;
13685;SDS011;6915;48.296;8.874;2023-04-03T13:06:41;4.20;;;2.40;;
13685;SDS011;6915;48.296;8.874;2023-04-03T13:09:18;4.47;;;2.50;;
13685;SDS011;6915;48.296;8.874;2023-04-03T13:11:49;2.77;;;2.23;;
13685;SDS011;6915;48.296;8.874;2023-04-03T13:14:22;3.43;;;2.20;;
13685;SDS011;6915;48.296;8.874;2023-04-03T13:16:54;3.87;;;2.50;;
13685;SDS011;6915;48.296;8.874;2023-04-03T13:19:26;2.87;;;2.40;;
13685;SDS011;6915;48.296;8.874;2023-04-03T13:21:56;3.33;;;2.00;;
13685;SDS011;6915;48.296;8.874;2023-04-03T13:24:29;2.70;;;2.13;;
13685;SDS011;6915;48.296;8.874;2023-04-03T13:27:01;3.00;;;2.13;;
13685;SDS011;6915;48.296;8.874;2023-04-03T13:29:32;2.73;;;2.30;;
13685;SDS011;6915;48.296;8.874;2023-04-03T13:32:16;2.90;;;2.47;;
13685;SDS011;6915;48.296;8.874;2023-04-03T13:34:52;4.50;;;2.20;;
13685;SDS011;6915;48.296;8.874;2023-04-03T13:37:22;3.40;;;2.30;;
13685;SDS011;6915;48.296;8.874;2023-04-03T13:39:57;2.90;;;2.03;;
13685;SDS011;6915;48.296;8.874;2023-04-03T13:42:28;3.00;;;2.10;;
13685;SDS011;6915;48.296;8.874;2023-04-03T13:45:11;3.60;;;2.13;;
13685;SDS011;6915;48.296;8.874;2023-04-03T13:47:48;3.67;;;2.60;;
13685;SDS011;6915;48.296;8.874;2023-04-03T13:50:20;4.60;;;2.20;;
13685;SDS011;6915;48.296;8.874;2023-04-03T13:52:51;3.80;;;1.90;;
13685;SDS011;6915;48.296;8.874;2023-04-03T13:55:22;3.20;;;2.20;;
13685;SDS011;6915;48.296;8.874;2023-04-03T13:57:54;2.30;;;1.87;;
13685;SDS011;6915;48.296;8.874;2023-04-03T14:00:31;3.07;;;2.00;;
13685;SDS011;6915;48.296;8.874;2023-04-03T14:03:02;2.33;;;2.10;;
13685;SDS011;6915;48.296;8.874;2023-04-03T14:05:39;3.60;;;2.00;;
13685;SDS011;6915;48.296;8.874;2023-04-03T14:08:10;3.83;;;2.03;;
13685;SDS011;6915;48.296;8.874;2023-04-03T14:10:38;4.90;;;2.27;;
13685;SDS011;6915;48.296;8.874;2023-04-03T14:13:09;3.77;;;1.90;;
13685;SDS011;6915;48.296;8.874;2023-04-03T14:15:37;2.43;;;1.90;;
13685;SDS011;6915;48.296;8.874;2023-04-03T14:18:09;4.10;;;1.73;;
13685;SDS011;6915;48.296;8.874;2023-04-03T14:20:41;3.17;;;1.90;;
13685;SDS011;6915;48.296;8.874;2023-04-03T14:23:10;3.23;;;2.10;;
13685;SDS011;6915;48.296;8.874;2023-04-03T14:25:39;2.33;;;1.63;;
13685;SDS011;6915;48.296;8.874;2023-04-03T14:28:13;2.30;;;1.70;;
13685;SDS011;6915;48.296;8.874;2023-04-03T14:30:43;2.83;;;1.50;;
13685;SDS011;6915;48.296;8.874;2023-04-03T14:33:13;3.33;;;2.23;;
13685;SDS011;6915;48.296;8.874;2023-04-03T14:35:46;4.77;;;1.97;;
13685;SDS011;6915;48.296;8.874;2023-04-03T14:38:20;1.60;;;1.50;;
13685;SDS011;6915;48.296;8.874;2023-04-03T14:40:51;3.93;;;2.00;;
13685;SDS011;6915;48.296;8.874;2023-04-03T14:43:21;2.93;;;1.90;;
13685;SDS011;6915;48.296;8.874;2023-04-03T14:45:51;4.27;;;2.37;;
13685;SDS011;6915;48.296;8.874;2023-04-03T14:48:21;3.47;;;1.70;;
13685;SDS011;6915;48.296;8.874;2023-04-03T14:50:52;4.07;;;1.93;;
13685;SDS011;6915;48.296;8.874;2023-04-03T14:53:21;5.43;;;1.80;;
13685;SDS011;6915;48.296;8.874;2023-04-03T14:55:51;2.87;;;1.73;;
13685;SDS011;6915;48.296;8.874;2023-04-03T14:58:21;3.33;;;2.30;;
13685;SDS011;6915;48.296;8.874;2023-04-03T15:00:50;2.33;;;1.67;;
13685;SDS011;6915;48.296;8.874;2023-04-03T15:03:20;3.50;;;2.00;;
13685;SDS011;6915;48.296;8.874;2023-04-03T15:05:49;3.20;;;2.00;;
13685;SDS011;6915;48.296;8.874;2023-04-03T15:08:19;3.27;;;2.03;;
13685;SDS011;6915;48.296;8.874;2023-04-03T15:10:51;3.30;;;2.13;;
13685;SDS011;6915;48.296;8.874;2023-04-03T15:13:20;2.90;;;1.77;;
13685;SDS011;6915;48.296;8.874;2023-04-03T15:15:50;2.37;;;2.17;;
13685;SDS011;6915;48.296;8.874;2023-04-03T15:18:20;3.70;;;2.10;;
13685;SDS011;6915;48.296;8.874;2023-04-03T15:20:53;3.07;;;1.93;;
13685;SDS011;6915;48.296;8.874;2023-04-03T15:23:22;2.30;;;2.10;;
13685;SDS011;6915;48.296;8.874;2023-04-03T15:25:51;1.83;;;1.60;;
13685;SDS011;6915;48.296;8.874;2023-04-03T15:28:22;2.73;;;2.27;;
13685;SDS011;6915;48.296;8.874;2023-04-03T15:30:54;3.73;;;2.50;;
13685;SDS011;6915;48.296;8.874;2023-04-03T15:33:22;4.03;;;2.60;;
13685;SDS011;6915;48.296;8.874;2023-04-03T15:35:53;6.10;;;2.70;;
13685;SDS011;6915;48.296;8.874;2023-04-03T15:38:23;2.13;;;1.83;;
13685;SDS011;6915;48.296;8.874;2023-04-03T15:40:54;3.17;;;2.23;;
13685;SDS011;6915;48.296;8.874;2023-04-03T15:43:23;2.20;;;2.00;;
13685;SDS011;6915;48.296;8.874;2023-04-03T15:45:51;3.93;;;2.10;;
13685;SDS011;6915;48.296;8.874;2023-04-03T15:48:24;3.20;;;2.10;;
13685;SDS011;6915;48.296;8.874;2023-04-03T15:51:17;2.70;;;2.17;;
13685;SDS011;6915;48.296;8.874;2023-04-03T15:53:46;2.50;;;2.00;;
13685;SDS011;6915;48.296;8.874;2023-04-03T15:56:17;4.30;;;2.10;;
13685;SDS011;6915;48.296;8.874;2023-04-03T15:58:46;2.97;;;2.10;;
13685;SDS011;6915;48.296;8.874;2023-04-03T16:01:14;2.77;;;2.00;;
13685;SDS011;6915;48.296;8.874;2023-04-03T16:03:43;2.93;;;2.10;;
13685;SDS011;6915;48.296;8.874;2023-04-03T16:06:15;2.47;;;1.80;;
13685;SDS011;6915;48.296;8.874;2023-04-03T16:08:59;2.73;;;1.97;;
13685;SDS011;6915;48.296;8.874;2023-04-03T16:11:30;6.00;;;2.33;;
13685;SDS011;6915;48.296;8.874;2023-04-03T16:14:00;3.33;;;2.57;;
13685;SDS011;6915;48.296;8.874;2023-04-03T16:16:34;2.97;;;2.33;;
13685;SDS011;6915;48.296;8.874;2023-04-03T16:19:06;2.93;;;2.20;;
13685;SDS011;6915;48.296;8.874;2023-04-03T16:44:53;3.50;;;2.37;;
13685;SDS011;6915;48.296;8.874;2023-04-03T16:47:23;3.53;;;2.30;;
13685;SDS011;6915;48.296;8.874;2023-04-03T16:49:52;2.97;;;2.20;;